Terminal Aerodrome Forecast
Issued by NWS Sterling, VA

Home | Current Version | Previous Version | Text Only | Print | Product List | Glossary On
Versions: 1 2 3 4 5 6 7 8 9 10 11 12 13 14
658
FTUS41 KLWX 221135
TAFCHO
TAF
KCHO 221135Z 2212/2312 VRB03KT P6SM -SHRA OVC050
     FM221500 VRB03KT P6SM OVC045
     FM221800 19005KT P6SM OVC030
     FM230000 20004KT P6SM BKN015=

USA.gov is the U.S. government's official web portal to all federal, state and local government web resources and services.